Time;durP1;ratioP1;P1;durP2;ratioP2;P2;SDS_P1;SDS_P2;PMS_P1;PMS_P2;Temp;Humidity;BMP_temperature;BMP_pressure;BME280_temperature;BME280_humidity;BME280_pressure;Samples;Min_cycle;Max_cycle;Signal;HPM_P1;HPM_P2
2022/12/21 00:01:18;;;;;;;43.67;22.40;;;2.20;99.90;;;;;;5044549;28;20472;-58
2022/12/21 00:03:48;;;;;;;37.33;22.23;;;2.20;99.90;;;;;;5040898;28;20783;-58
2022/12/21 00:06:13;;;;;;;43.17;23.17;;;2.20;99.90;;;;;;5037855;28;21018;-59
2022/12/21 00:08:44;;;;;;;42.77;22.80;;;2.20;99.90;;;;;;5037131;28;20418;-58
2022/12/21 00:11:11;;;;;;;44.90;23.30;;;2.20;99.90;;;;;;5047946;28;20222;-58
2022/12/21 00:13:38;;;;;;;43.33;23.97;;;2.20;99.90;;;;;;5048604;28;20492;-58
2022/12/21 00:16:05;;;;;;;50.60;23.27;;;2.20;99.90;;;;;;5040669;28;20468;-58
2022/12/21 00:18:33;;;;;;;42.73;22.97;;;2.20;99.90;;;;;;5039086;28;20413;-59
2022/12/21 00:21:03;;;;;;;44.23;21.37;;;2.20;99.90;;;;;;5037825;28;20445;-58
2022/12/21 00:23:29;;;;;;;40.40;22.30;;;2.20;99.90;;;;;;5061165;28;20461;-58
2022/12/21 00:25:55;;;;;;;44.03;23.27;;;2.20;99.90;;;;;;5035589;28;20465;-59
2022/12/21 00:28:21;;;;;;;33.20;20.50;;;2.20;99.90;;;;;;5041409;28;20809;-58
2022/12/21 00:30:47;;;;;;;37.50;19.53;;;2.20;99.90;;;;;;5041468;28;20455;-59
2022/12/21 00:33:12;;;;;;;32.97;20.70;;;2.20;99.90;;;;;;5039198;28;20521;-58
2022/12/21 00:35:38;;;;;;;35.10;19.70;;;2.10;99.90;;;;;;5055644;28;20173;-58
2022/12/21 00:38:04;;;;;;;33.00;19.80;;;2.10;99.90;;;;;;5053940;28;20706;-58
2022/12/21 00:40:29;;;;;;;32.57;18.80;;;2.10;99.90;;;;;;5046732;28;20221;-58
2022/12/21 00:42:55;;;;;;;39.80;20.37;;;2.10;99.90;;;;;;5038187;28;20186;-58
2022/12/21 00:45:20;;;;;;;37.20;21.80;;;2.10;99.90;;;;;;5053344;28;20207;-58
2022/12/21 00:47:46;;;;;;;39.33;20.47;;;2.10;99.90;;;;;;5038554;28;20184;-58
2022/12/21 00:50:11;;;;;;;33.20;19.50;;;2.10;99.90;;;;;;5041874;28;20223;-58
2022/12/21 00:52:37;;;;;;;32.33;18.10;;;2.10;99.90;;;;;;5044040;28;20218;-59
2022/12/21 00:55:03;;;;;;;45.10;19.97;;;2.10;99.90;;;;;;5035349;28;20702;-59
2022/12/21 00:57:28;;;;;;;37.57;18.50;;;2.10;99.90;;;;;;5048562;28;20176;-58
2022/12/21 00:59:54;;;;;;;34.70;20.03;;;2.10;99.90;;;;;;5030313;28;20201;-58
2022/12/21 01:02:20;;;;;;;39.80;21.80;;;2.20;99.90;;;;;;5061321;28;20178;-58
2022/12/21 01:04:45;;;;;;;33.60;19.33;;;2.20;99.90;;;;;;5047132;28;20632;-58
2022/12/21 01:07:11;;;;;;;35.60;19.73;;;2.10;99.90;;;;;;5038096;28;20206;-58
2022/12/21 01:09:36;;;;;;;35.63;20.77;;;2.20;99.90;;;;;;5043229;28;20761;-58
2022/12/21 01:12:02;;;;;;;36.33;19.57;;;2.20;99.90;;;;;;5042111;28;20186;-58
2022/12/21 01:14:28;;;;;;;33.33;20.40;;;2.20;99.90;;;;;;5040664;28;20660;-58
2022/12/21 01:16:53;;;;;;;35.73;20.10;;;2.20;99.90;;;;;;5035228;28;20182;-58
2022/12/21 01:19:20;;;;;;;34.50;20.00;;;2.20;99.90;;;;;;5039732;28;20176;-57
2022/12/21 01:21:46;;;;;;;36.33;19.97;;;2.20;99.90;;;;;;5049419;28;20638;-58
2022/12/21 01:24:12;;;;;;;38.03;20.63;;;2.20;99.90;;;;;;5043224;28;20516;-58
2022/12/21 01:26:38;;;;;;;36.50;19.80;;;2.10;99.90;;;;;;5047617;28;20205;-58
2022/12/21 01:29:04;;;;;;;40.40;20.57;;;2.10;99.90;;;;;;5047841;28;20183;-58
2022/12/21 01:31:29;;;;;;;37.27;20.57;;;2.10;99.90;;;;;;5049761;28;20448;-58
2022/12/21 01:33:55;;;;;;;43.77;20.17;;;2.10;99.90;;;;;;5049883;28;20176;-58
2022/12/21 01:36:22;;;;;;;35.57;19.13;;;2.10;99.90;;;;;;5049674;28;20566;-58
2022/12/21 01:38:48;;;;;;;34.10;19.80;;;2.10;99.90;;;;;;5045817;28;20184;-58
2022/12/21 01:41:17;;;;;;;36.30;19.60;;;2.10;99.90;;;;;;5044184;28;20491;-58
2022/12/21 01:43:43;;;;;;;33.90;19.53;;;2.10;99.90;;;;;;5056172;28;20269;-58
2022/12/21 01:46:27;;;;;;;40.93;22.37;;;2.20;99.90;;;;;;5034896;28;20515;-58
2022/12/21 01:49:33;;;;;;;36.70;20.63;;;2.20;99.90;;;;;;5045730;28;20444;-60
2022/12/21 01:52:12;;;;;;;39.20;20.43;;;2.20;99.90;;;;;;5040707;28;20428;-58
2022/12/21 01:54:45;;;;;;;33.53;19.40;;;2.10;99.90;;;;;;5049071;28;20517;-58
2022/12/21 01:57:13;;;;;;;36.77;19.37;;;2.10;99.90;;;;;;5035344;28;20440;-60
2022/12/21 01:59:43;;;;;;;34.47;20.33;;;2.10;99.90;;;;;;5042919;28;20433;-58
2022/12/21 02:02:20;;;;;;;35.57;19.83;;;2.10;99.90;;;;;;5048989;28;20942;-58
2022/12/21 02:04:46;;;;;;;35.73;19.50;;;2.20;99.90;;;;;;5046380;28;20432;-58
2022/12/21 02:07:12;;;;;;;35.40;19.67;;;2.20;99.90;;;;;;5050282;28;20465;-58
2022/12/21 02:09:39;;;;;;;35.03;19.73;;;2.20;99.90;;;;;;5042722;28;20493;-58
2022/12/21 02:12:08;;;;;;;38.07;20.30;;;2.20;99.90;;;;;;5050065;28;20429;-58
2022/12/21 02:14:39;;;;;;;39.70;20.13;;;2.20;99.90;;;;;;5043194;28;20487;-59
2022/12/21 02:17:26;;;;;;;39.27;21.50;;;2.20;99.90;;;;;;5060929;28;20444;-58
2022/12/21 02:20:03;;;;;;;36.93;19.93;;;2.20;99.90;;;;;;5039043;28;20454;-58
2022/12/21 02:22:47;;;;;;;47.30;21.73;;;2.20;99.90;;;;;;5050050;28;20977;-60
2022/12/21 02:26:04;;;;;;;31.50;18.87;;;2.10;99.90;;;;;;5046792;28;20432;-58
2022/12/21 02:28:29;;;;;;;33.37;20.23;;;2.20;99.90;;;;;;5016582;28;20944;-59
2022/12/21 02:31:08;;;;;;;31.93;19.20;;;2.20;99.90;;;;;;5048407;28;20496;-58
2022/12/21 02:33:36;;;;;;;42.43;20.33;;;2.20;99.90;;;;;;5046983;28;20190;-58
2022/12/21 02:36:26;;;;;;;37.93;19.23;;;2.20;99.90;;;;;;5041475;28;20432;-58
2022/12/21 02:39:03;;;;;;;36.47;20.17;;;2.20;99.90;;;;;;5041342;28;20492;-59
2022/12/21 02:41:46;;;;;;;36.10;18.50;;;2.20;99.90;;;;;;5041500;28;20469;-58
2022/12/21 02:44:14;;;;;;;35.37;20.20;;;2.20;99.90;;;;;;5040019;28;20981;-58
2022/12/21 02:47:05;;;;;;;34.50;21.17;;;2.10;99.90;;;;;;5039606;28;20493;-58
2022/12/21 02:49:50;;;;;;;35.87;20.13;;;2.20;99.90;;;;;;5030589;28;20902;-58
2022/12/21 02:52:47;;;;;;;39.30;19.20;;;2.20;99.90;;;;;;5048668;28;20432;-58
2022/12/21 02:55:14;;;;;;;37.47;19.10;;;2.20;99.90;;;;;;5036080;28;20446;-58
2022/12/21 02:57:42;;;;;;;37.57;21.43;;;2.20;99.90;;;;;;5045151;28;20466;-58
2022/12/21 03:00:12;;;;;;;36.00;19.37;;;2.20;99.90;;;;;;5041922;28;20453;-59
2022/12/21 03:02:46;;;;;;;36.90;19.80;;;2.20;99.90;;;;;;5046770;28;20425;-59
2022/12/21 03:05:23;;;;;;;27.57;17.20;;;2.20;99.90;;;;;;5039922;28;20464;-58
2022/12/21 03:08:08;;;;;;;28.50;16.93;;;2.20;99.90;;;;;;5049381;28;20425;-58
2022/12/21 03:11:00;;;;;;;29.17;16.47;;;2.20;99.90;;;;;;5041437;28;20450;-58
2022/12/21 03:13:47;;;;;;;30.30;16.90;;;2.10;99.90;;;;;;5064727;28;20430;-58
2022/12/21 03:16:26;;;;;;;34.97;18.00;;;2.20;99.90;;;;;;5042230;28;20528;-58
2022/12/21 03:19:25;;;;;;;31.20;17.67;;;2.10;99.90;;;;;;5035571;28;20428;-58
2022/12/21 03:22:04;;;;;;;28.30;17.23;;;2.20;99.90;;;;;;5045689;28;20842;-58
2022/12/21 03:24:36;;;;;;;32.80;17.07;;;2.10;99.90;;;;;;5046695;28;20432;-58
2022/12/21 03:27:18;;;;;;;37.70;17.53;;;2.20;99.90;;;;;;5047548;28;20553;-58
2022/12/21 03:29:57;;;;;;;32.67;17.60;;;2.20;99.90;;;;;;5048503;28;20436;-58
2022/12/21 03:32:31;;;;;;;30.77;17.50;;;2.20;99.90;;;;;;5044020;28;20428;-58
2022/12/21 03:34:58;;;;;;;29.30;16.50;;;2.20;99.90;;;;;;5033531;28;20493;-58
2022/12/21 03:37:32;;;;;;;32.63;17.87;;;2.20;99.90;;;;;;5047803;28;20501;-58
2022/12/21 03:40:06;;;;;;;30.27;16.60;;;2.20;99.90;;;;;;5039665;28;20522;-58
2022/12/21 03:42:37;;;;;;;41.60;16.63;;;2.20;99.90;;;;;;5035736;28;20885;-58
2022/12/21 03:45:09;;;;;;;27.80;16.73;;;2.20;99.90;;;;;;5053017;28;20821;-57
2022/12/21 03:47:45;;;;;;;33.10;17.77;;;2.20;99.90;;;;;;5059547;28;20418;-58
2022/12/21 03:50:19;;;;;;;29.83;16.97;;;2.10;99.90;;;;;;5045115;28;20900;-58
2022/12/21 03:53:03;;;;;;;28.57;16.73;;;2.20;99.90;;;;;;5049333;28;20500;-58
2022/12/21 03:55:35;;;;;;;29.53;15.90;;;2.20;99.90;;;;;;5042559;28;20838;-58
2022/12/21 03:58:02;;;;;;;29.67;16.73;;;2.20;99.90;;;;;;5040385;28;20425;-59
2022/12/21 04:00:38;;;;;;;34.47;18.40;;;2.20;99.90;;;;;;5047645;28;20498;-58
2022/12/21 04:03:19;;;;;;;29.30;17.00;;;2.20;99.90;;;;;;5030193;28;20406;-58
2022/12/21 04:06:02;;;;;;;29.70;16.27;;;2.20;99.90;;;;;;5038336;28;20857;-58
2022/12/21 04:08:28;;;;;;;33.57;17.00;;;2.20;99.90;;;;;;5043853;28;20436;-58
2022/12/21 04:10:54;;;;;;;34.27;17.60;;;2.20;99.90;;;;;;5047729;28;20444;-58
2022/12/21 04:13:19;;;;;;;27.07;16.70;;;2.20;99.90;;;;;;5043225;28;20422;-58
2022/12/21 04:16:03;;;;;;;32.87;18.20;;;2.20;99.90;;;;;;5041117;28;20183;-58
2022/12/21 04:21:13;;;;;;;26.53;16.37;;;2.20;99.90;;;;;;5041521;28;20475;-60
2022/12/21 04:29:07;;;;;;;28.13;16.67;;;2.20;99.90;;;;;;5044746;28;20575;-58
2022/12/21 04:31:32;;;;;;;26.73;17.30;;;2.10;99.90;;;;;;5048479;28;20480;-58
2022/12/21 04:33:58;;;;;;;34.40;18.40;;;2.20;99.90;;;;;;5044590;28;20191;-58
2022/12/21 04:39:08;;;;;;;29.50;16.20;;;2.10;99.90;;;;;;5048346;28;20194;-58
2022/12/21 04:41:33;;;;;;;29.93;16.17;;;2.10;99.90;;;;;;5038872;28;20462;-58
2022/12/21 04:43:59;;;;;;;25.63;14.70;;;2.10;99.90;;;;;;5049771;28;20185;-58
2022/12/21 04:46:25;;;;;;;27.57;15.33;;;2.20;99.90;;;;;;5052851;28;20235;-58
2022/12/21 04:48:50;;;;;;;25.17;15.27;;;2.20;99.90;;;;;;5045922;28;20225;-58
2022/12/21 04:51:23;;;;;;;25.47;15.53;;;2.10;99.90;;;;;;5035062;28;20187;-58
2022/12/21 04:53:49;;;;;;;25.40;15.10;;;2.10;99.90;;;;;;5044599;28;20182;-58
2022/12/21 04:56:16;;;;;;;27.57;15.57;;;2.20;99.90;;;;;;5044229;28;20429;-58
2022/12/21 04:58:42;;;;;;;34.73;16.60;;;2.20;99.90;;;;;;5049425;28;20503;-58
2022/12/21 05:01:09;;;;;;;27.30;15.57;;;2.20;99.90;;;;;;5049061;28;20457;-58
2022/12/21 05:03:35;;;;;;;28.40;14.90;;;2.20;99.90;;;;;;5048532;28;20440;-59
2022/12/21 05:06:00;;;;;;;33.63;16.43;;;2.10;99.90;;;;;;5044191;28;20453;-58
2022/12/21 05:08:27;;;;;;;31.03;15.20;;;2.20;99.90;;;;;;5041123;28;20713;-58
2022/12/21 05:10:53;;;;;;;29.63;16.10;;;2.20;99.90;;;;;;5043849;28;20251;-58
2022/12/21 05:13:18;;;;;;;29.97;17.87;;;2.20;99.90;;;;;;5040978;28;20433;-58
2022/12/21 05:15:45;;;;;;;30.47;17.00;;;2.20;99.90;;;;;;5051900;28;20171;-59
2022/12/21 05:18:11;;;;;;;30.67;15.47;;;2.20;99.90;;;;;;5041916;28;21004;-59
2022/12/21 05:20:36;;;;;;;31.50;16.10;;;2.20;99.90;;;;;;5040979;28;20207;-58
2022/12/21 05:23:02;;;;;;;28.63;16.33;;;2.20;99.90;;;;;;5044311;28;20179;-59
2022/12/21 05:25:27;;;;;;;27.70;16.30;;;2.20;99.90;;;;;;5049464;28;20202;-59
2022/12/21 05:27:53;;;;;;;32.50;15.70;;;2.20;99.90;;;;;;5040557;28;20715;-59
2022/12/21 05:30:19;;;;;;;29.43;16.60;;;2.20;99.90;;;;;;5055753;28;20260;-58
2022/12/21 05:32:44;;;;;;;33.90;16.63;;;2.20;99.90;;;;;;5047192;28;20241;-59
2022/12/21 05:35:10;;;;;;;30.47;15.67;;;2.20;99.90;;;;;;5045145;28;20664;-59
2022/12/21 05:37:35;;;;;;;28.63;15.57;;;2.30;99.90;;;;;;5045266;28;20183;-59
2022/12/21 05:40:01;;;;;;;25.40;15.60;;;2.20;99.90;;;;;;5039805;28;20203;-59
2022/12/21 05:42:26;;;;;;;27.73;15.80;;;2.20;99.90;;;;;;5052419;28;20194;-59
2022/12/21 05:44:52;;;;;;;30.40;17.17;;;2.20;99.90;;;;;;5056586;28;20201;-59
2022/12/21 05:47:17;;;;;;;30.53;17.60;;;2.30;99.90;;;;;;5038952;28;20215;-59
2022/12/21 05:49:43;;;;;;;35.33;18.30;;;2.30;99.90;;;;;;5039361;28;20626;-59
2022/12/21 05:52:09;;;;;;;36.47;17.50;;;2.30;99.90;;;;;;5039359;28;20188;-60
2022/12/21 05:54:34;;;;;;;30.33;17.13;;;2.30;99.90;;;;;;5041032;28;20176;-60
2022/12/21 05:57:00;;;;;;;26.67;16.37;;;2.20;99.90;;;;;;5042041;28;20172;-59
2022/12/21 05:59:25;;;;;;;34.33;17.47;;;2.20;99.90;;;;;;5039572;28;20673;-58
2022/12/21 06:01:51;;;;;;;30.33;17.80;;;2.30;99.90;;;;;;5045456;28;20183;-59
2022/12/21 06:04:16;;;;;;;32.23;16.83;;;2.30;99.90;;;;;;5044000;28;20758;-59
2022/12/21 06:06:44;;;;;;;39.73;18.57;;;2.30;99.90;;;;;;5043829;28;20203;-60
2022/12/21 06:09:10;;;;;;;31.47;17.50;;;2.20;99.90;;;;;;5042389;28;20244;-60
2022/12/21 06:11:35;;;;;;;30.20;17.07;;;2.20;99.90;;;;;;5042285;28;22214;-59
2022/12/21 06:14:01;;;;;;;30.93;16.90;;;2.20;99.90;;;;;;5044251;28;20189;-59
2022/12/21 06:16:27;;;;;;;30.53;16.87;;;2.20;99.90;;;;;;5046715;28;20605;-59
2022/12/21 06:18:53;;;;;;;32.30;18.07;;;2.20;99.90;;;;;;5037780;28;20175;-60
2022/12/21 06:21:20;;;;;;;33.93;17.90;;;2.20;99.90;;;;;;5051066;28;20434;-59
2022/12/21 06:23:46;;;;;;;34.97;18.53;;;2.20;99.90;;;;;;5048523;28;20425;-59
2022/12/21 06:26:15;;;;;;;34.37;18.37;;;2.20;99.90;;;;;;5037528;28;20537;-59
2022/12/21 06:28:40;;;;;;;31.33;19.23;;;2.20;99.90;;;;;;5046421;28;20516;-59
2022/12/21 06:31:11;;;;;;;34.57;18.03;;;2.20;99.90;;;;;;5047727;28;20643;-60
2022/12/21 06:33:37;;;;;;;33.13;18.57;;;2.30;99.90;;;;;;5045975;28;20257;-60
2022/12/21 06:36:04;;;;;;;32.83;18.50;;;2.30;99.90;;;;;;5031923;28;20922;-60
2022/12/21 06:38:31;;;;;;;28.87;18.37;;;2.30;99.90;;;;;;5046684;28;20433;-60
2022/12/21 06:41:01;;;;;;;36.93;19.27;;;2.30;99.90;;;;;;5047762;28;20526;-59
2022/12/21 06:43:29;;;;;;;30.50;18.73;;;2.30;99.90;;;;;;5048482;28;20436;-59
2022/12/21 06:46:00;;;;;;;30.60;16.77;;;2.30;99.90;;;;;;5046042;28;21027;-59
2022/12/21 06:48:27;;;;;;;34.17;17.37;;;2.30;99.90;;;;;;5048474;28;21030;-59
2022/12/21 06:50:58;;;;;;;29.53;17.27;;;2.30;99.90;;;;;;5044105;28;20445;-59
2022/12/21 06:53:29;;;;;;;29.60;16.23;;;2.30;99.90;;;;;;5048976;28;20832;-59
2022/12/21 06:56:04;;;;;;;24.57;15.60;;;2.30;99.90;;;;;;5038701;28;21897;-59
2022/12/21 06:58:30;;;;;;;29.50;17.13;;;2.30;99.90;;;;;;5045826;28;20438;-59
2022/12/21 07:00:56;;;;;;;26.50;16.20;;;2.30;99.90;;;;;;5045645;28;20847;-60
2022/12/21 07:03:22;;;;;;;30.53;16.13;;;2.30;99.90;;;;;;5046820;28;20437;-59
2022/12/21 07:05:49;;;;;;;28.57;16.63;;;2.30;99.90;;;;;;5047048;28;20206;-59
2022/12/21 07:08:16;;;;;;;32.83;19.40;;;2.30;99.90;;;;;;5044075;28;20437;-59
2022/12/21 07:10:41;;;;;;;31.60;17.90;;;2.30;99.90;;;;;;5047587;28;20437;-59
2022/12/21 07:13:07;;;;;;;26.30;17.50;;;2.30;99.90;;;;;;5047684;28;20425;-59
2022/12/21 07:15:33;;;;;;;29.13;17.33;;;2.30;99.90;;;;;;5046869;28;20213;-59
2022/12/21 07:17:59;;;;;;;33.87;18.40;;;2.30;99.90;;;;;;5040061;28;20179;-59
2022/12/21 07:20:24;;;;;;;30.27;17.50;;;2.30;99.90;;;;;;5041220;28;20445;-59
2022/12/21 07:22:50;;;;;;;31.53;17.80;;;2.30;99.90;;;;;;5047463;28;20233;-60
2022/12/21 07:25:16;;;;;;;25.57;16.57;;;2.30;99.90;;;;;;5037976;28;20186;-59
2022/12/21 07:27:42;;;;;;;29.17;16.30;;;2.30;99.90;;;;;;5045693;28;20807;-58
2022/12/21 07:30:08;;;;;;;29.90;16.70;;;2.30;99.90;;;;;;5047770;28;20445;-59
2022/12/21 07:32:34;;;;;;;27.87;17.20;;;2.30;99.90;;;;;;5043643;28;20547;-59
2022/12/21 07:34:59;;;;;;;27.23;16.50;;;2.30;99.90;;;;;;5035280;28;20430;-59
2022/12/21 07:37:25;;;;;;;27.13;17.00;;;2.30;99.90;;;;;;5042115;28;20671;-60
2022/12/21 07:39:50;;;;;;;29.00;15.70;;;2.30;99.90;;;;;;5034052;28;20210;-60
2022/12/21 07:42:16;;;;;;;25.13;15.97;;;2.30;99.90;;;;;;5051616;28;20183;-59
2022/12/21 07:44:42;;;;;;;31.87;16.70;;;2.30;99.90;;;;;;5047609;28;20254;-59
2022/12/21 07:47:07;;;;;;;31.53;17.97;;;2.30;99.90;;;;;;5036344;28;20257;-59
2022/12/21 07:49:36;;;;;;;28.23;16.03;;;2.40;99.90;;;;;;5032869;28;20706;-59
2022/12/21 07:52:02;;;;;;;33.07;16.77;;;2.40;99.90;;;;;;5042425;28;20183;-60
2022/12/21 07:54:27;;;;;;;32.10;18.07;;;2.40;99.90;;;;;;5035680;28;20512;-59
2022/12/21 07:56:53;;;;;;;28.53;16.90;;;2.40;99.90;;;;;;5043859;28;20237;-58
2022/12/21 07:59:19;;;;;;;30.53;16.90;;;2.40;99.90;;;;;;5038396;28;20700;-59
2022/12/21 08:01:44;;;;;;;30.77;18.00;;;2.50;99.90;;;;;;5042231;28;20214;-60
2022/12/21 08:04:10;;;;;;;28.13;17.73;;;2.50;99.90;;;;;;5038317;28;20204;-59
2022/12/21 08:06:36;;;;;;;29.90;16.97;;;2.50;99.90;;;;;;5041175;28;20249;-60
2022/12/21 08:09:03;;;;;;;29.60;17.27;;;2.50;99.90;;;;;;5039834;28;20442;-60
2022/12/21 08:11:29;;;;;;;28.80;17.83;;;2.50;99.90;;;;;;5039072;28;20201;-59
2022/12/21 08:13:56;;;;;;;37.20;17.60;;;2.50;99.90;;;;;;5036100;28;20426;-59
2022/12/21 08:16:22;;;;;;;30.13;16.87;;;2.50;99.90;;;;;;5043735;28;20953;-60
2022/12/21 08:18:48;;;;;;;33.87;18.83;;;2.50;99.90;;;;;;5037220;28;20421;-60
2022/12/21 08:21:15;;;;;;;34.47;17.73;;;2.50;99.90;;;;;;5047338;28;20220;-59
2022/12/21 08:23:41;;;;;;;34.67;19.40;;;2.50;99.90;;;;;;5040523;28;20440;-58
2022/12/21 08:26:10;;;;;;;31.30;18.63;;;2.60;99.90;;;;;;5035646;28;20922;-59
2022/12/21 08:28:35;;;;;;;35.20;19.27;;;2.60;99.90;;;;;;5045030;28;20438;-59
2022/12/21 08:31:12;;;;;;;30.30;17.50;;;2.60;99.90;;;;;;5038630;28;20457;-60
2022/12/21 08:33:41;;;;;;;33.87;18.37;;;2.60;99.90;;;;;;5044297;28;20638;-60
2022/12/21 08:36:15;;;;;;;35.77;19.10;;;2.60;99.90;;;;;;5029571;28;20930;-59
2022/12/21 08:38:41;;;;;;;36.70;19.80;;;2.60;99.90;;;;;;5039331;28;20435;-59
2022/12/21 08:41:07;;;;;;;28.10;18.50;;;2.60;99.90;;;;;;5046003;28;20518;-59
2022/12/21 08:43:37;;;;;;;33.43;19.70;;;2.60;99.90;;;;;;5043866;28;20970;-60
2022/12/21 08:46:12;;;;;;;28.50;16.93;;;2.70;99.90;;;;;;5032384;28;20207;-60
2022/12/21 08:48:38;;;;;;;37.00;18.93;;;2.70;99.90;;;;;;5027193;28;20414;-60
2022/12/21 08:51:05;;;;;;;34.90;19.90;;;2.70;99.90;;;;;;5027068;28;20474;-60
2022/12/21 08:53:30;;;;;;;35.57;19.23;;;2.70;99.90;;;;;;5045375;28;20183;-60
2022/12/21 08:55:56;;;;;;;29.40;18.00;;;2.80;99.90;;;;;;5043223;28;20536;-60
2022/12/21 08:58:23;;;;;;;33.80;18.70;;;2.80;99.90;;;;;;5036878;28;20210;-59
2022/12/21 09:00:54;;;;;;;30.93;19.47;;;2.80;99.90;;;;;;5037480;28;20293;-60
2022/12/21 09:03:21;;;;;;;29.50;18.27;;;2.90;99.90;;;;;;5040976;28;20921;-60
2022/12/21 09:05:47;;;;;;;32.10;18.97;;;2.90;99.90;;;;;;5039996;28;20461;-60
2022/12/21 09:08:13;;;;;;;35.43;20.80;;;3.00;99.90;;;;;;5041584;28;20429;-59
2022/12/21 09:10:39;;;;;;;30.93;20.30;;;3.00;99.90;;;;;;5038431;28;20454;-55
2022/12/21 09:13:05;;;;;;;36.43;20.73;;;3.10;99.90;;;;;;5040955;28;20456;-54
2022/12/21 09:15:31;;;;;;;34.80;20.53;;;3.10;99.90;;;;;;5040819;28;20186;-54
2022/12/21 09:17:57;;;;;;;38.83;21.23;;;3.10;99.90;;;;;;5038480;28;20206;-60
2022/12/21 09:20:22;;;;;;;36.17;20.80;;;3.20;99.90;;;;;;5033932;28;20235;-60
2022/12/21 09:22:48;;;;;;;37.40;20.87;;;3.20;99.90;;;;;;5041909;28;20939;-59
2022/12/21 09:25:14;;;;;;;40.13;21.43;;;3.20;99.90;;;;;;5037216;28;20844;-59
2022/12/21 09:27:39;;;;;;;44.93;22.37;;;3.20;99.90;;;;;;5044842;28;20256;-61
2022/12/21 09:30:06;;;;;;;33.53;21.30;;;3.20;99.90;;;;;;5042247;28;22293;-60
2022/12/21 09:32:33;;;;;;;34.97;20.77;;;3.20;99.90;;;;;;5044934;28;20180;-60
2022/12/21 09:34:59;;;;;;;31.70;20.83;;;3.30;99.90;;;;;;5029588;28;20429;-60
2022/12/21 09:37:24;;;;;;;40.80;24.20;;;3.30;99.90;;;;;;5046320;28;20445;-60
2022/12/21 09:39:50;;;;;;;34.20;22.37;;;3.40;99.90;;;;;;5044119;28;20605;-59
2022/12/21 09:42:36;;;;;;;32.20;19.53;;;3.40;99.90;;;;;;5039386;28;20206;-60
2022/12/21 09:45:26;;;;;;;42.43;23.73;;;3.40;99.90;;;;;;5041494;28;20712;-59
2022/12/21 09:47:59;;;;;;;35.53;21.23;;;3.50;99.90;;;;;;5039937;28;20778;-60
2022/12/21 09:50:36;;;;;;;37.77;20.87;;;3.60;99.90;;;;;;5046678;28;20459;-59
2022/12/21 09:53:12;;;;;;;34.07;20.40;;;3.70;99.90;;;;;;5049273;28;20436;-60
2022/12/21 09:55:45;;;;;;;26.47;14.80;;;3.70;99.90;;;;;;5040530;28;20432;-60
2022/12/21 09:58:14;;;;;;;31.13;19.30;;;3.90;99.90;;;;;;5046682;28;20508;-59
2022/12/21 10:00:44;;;;;;;25.33;12.60;;;4.00;99.90;;;;;;5041901;28;20444;-60
2022/12/21 10:03:27;;;;;;;18.40;11.87;;;4.10;99.90;;;;;;5044317;28;20475;-60
2022/12/21 10:06:23;;;;;;;19.47;11.00;;;4.30;99.90;;;;;;5045724;28;20449;-59
2022/12/21 10:08:57;;;;;;;21.90;11.47;;;4.50;99.90;;;;;;5046150;28;20422;-59
2022/12/21 10:11:56;;;;;;;21.40;10.60;;;4.70;99.90;;;;;;5040964;28;20456;-60
2022/12/21 10:14:45;;;;;;;17.20;10.50;;;4.90;99.90;;;;;;5042343;28;20588;-59
2022/12/21 10:17:37;;;;;;;15.07;9.70;;;5.10;99.90;;;;;;4999912;28;20436;-60
2022/12/21 10:20:27;;;;;;;16.03;9.90;;;5.20;99.90;;;;;;5041980;28;20473;-60
2022/12/21 10:23:00;;;;;;;20.03;10.70;;;5.30;99.90;;;;;;5035423;28;20426;-61
2022/12/21 10:25:54;;;;;;;21.70;12.17;;;5.40;99.90;;;;;;5033365;28;20958;-60
2022/12/21 10:28:29;;;;;;;18.43;11.00;;;5.50;99.90;;;;;;5043560;28;20860;-60
2022/12/21 10:31:05;;;;;;;17.40;10.83;;;5.50;99.90;;;;;;5044437;28;20457;-60
2022/12/21 10:33:40;;;;;;;13.50;9.47;;;5.60;99.90;;;;;;5042401;28;20433;-59
2022/12/21 10:36:06;;;;;;;16.90;11.10;;;5.50;99.90;;;;;;5037904;28;20437;-60
2022/12/21 10:38:35;;;;;;;19.50;11.57;;;5.60;99.90;;;;;;5042214;28;20962;-60
2022/12/21 10:41:06;;;;;;;13.90;9.67;;;5.60;99.90;;;;;;5039843;28;20973;-60
2022/12/21 10:43:38;;;;;;;18.57;11.47;;;5.60;99.90;;;;;;5044424;28;20431;-60
2022/12/21 10:46:05;;;;;;;19.57;9.90;;;5.60;99.90;;;;;;5041109;28;20462;-60
2022/12/21 10:48:32;;;;;;;13.37;9.50;;;5.50;99.90;;;;;;5041901;28;20851;-60
2022/12/21 10:51:21;;;;;;;14.93;9.70;;;5.50;99.90;;;;;;5035808;28;21049;-61
2022/12/21 10:53:58;;;;;;;20.07;9.73;;;5.50;99.90;;;;;;5037478;28;20447;-61
2022/12/21 10:56:25;;;;;;;21.17;10.63;;;5.50;99.90;;;;;;5041434;28;20792;-61
2022/12/21 10:58:53;;;;;;;14.93;10.10;;;5.40;99.90;;;;;;5041710;28;20419;-60
2022/12/21 11:01:27;;;;;;;13.57;9.17;;;5.40;99.90;;;;;;5039657;28;20544;-61
2022/12/21 11:04:13;;;;;;;13.67;8.93;;;5.40;99.90;;;;;;5040539;28;20464;-61
2022/12/21 11:06:39;;;;;;;16.93;9.80;;;5.40;99.90;;;;;;5038348;28;20667;-61
2022/12/21 11:09:34;;;;;;;16.27;10.33;;;5.30;99.90;;;;;;5041170;28;20980;-61
2022/12/21 11:12:19;;;;;;;17.07;10.43;;;5.40;99.90;;;;;;5039519;28;20184;-61
2022/12/21 11:14:45;;;;;;;19.60;11.47;;;5.40;99.90;;;;;;5039493;28;20942;-61
2022/12/21 11:17:24;;;;;;;14.50;10.83;;;5.40;99.90;;;;;;5039342;28;21288;-61
2022/12/21 11:19:54;;;;;;;13.53;8.90;;;5.40;99.90;;;;;;5040258;28;20230;-61
2022/12/21 11:22:27;;;;;;;13.63;8.60;;;5.40;99.90;;;;;;5038220;28;20431;-61
2022/12/21 11:24:56;;;;;;;14.53;7.90;;;5.40;99.90;;;;;;5035527;28;20430;-60
2022/12/21 11:27:25;;;;;;;15.07;10.20;;;5.50;99.90;;;;;;5038475;28;20462;-61
2022/12/21 11:29:59;;;;;;;17.67;11.10;;;5.50;99.90;;;;;;5037700;28;20466;-60
2022/12/21 11:32:28;;;;;;;18.53;10.90;;;5.50;99.90;;;;;;5039172;28;20429;-60
2022/12/21 11:35:05;;;;;;;15.63;10.27;;;5.50;99.90;;;;;;5033757;28;20465;-60
2022/12/21 11:37:37;;;;;;;12.57;8.80;;;5.50;99.90;;;;;;5031972;28;20434;-61
2022/12/21 11:40:11;;;;;;;25.20;9.23;;;5.50;99.90;;;;;;5037457;28;20492;-61
2022/12/21 11:43:03;;;;;;;14.93;9.73;;;5.60;99.90;;;;;;5042194;28;20773;-60
2022/12/21 11:45:50;;;;;;;13.20;9.27;;;5.60;99.90;;;;;;5030340;28;20520;-60
2022/12/21 11:48:45;;;;;;;14.73;9.47;;;5.70;99.90;;;;;;5031080;28;20426;-61
2022/12/21 11:51:17;;;;;;;16.57;9.00;;;5.80;99.90;;;;;;5036876;28;20456;-60
2022/12/21 11:53:59;;;;;;;14.07;10.27;;;5.90;99.90;;;;;;5040748;28;20462;-61
2022/12/21 11:56:42;;;;;;;15.03;9.20;;;6.00;99.90;;;;;;5037111;28;20489;-60
2022/12/21 11:59:38;;;;;;;12.77;7.97;;;6.10;99.90;;;;;;5028363;28;20479;-61
2022/12/21 12:02:12;;;;;;;11.60;8.27;;;6.10;99.90;;;;;;5034943;28;20444;-60
2022/12/21 12:05:12;;;;;;;17.83;11.70;;;6.10;99.90;;;;;;5039372;28;20444;-60
2022/12/21 12:07:59;;;;;;;14.60;8.80;;;6.10;99.90;;;;;;5026526;28;20472;-60
2022/12/21 12:10:49;;;;;;;13.10;8.57;;;6.10;99.90;;;;;;5037410;28;20445;-60
2022/12/21 12:13:38;;;;;;;11.50;8.40;;;6.10;99.90;;;;;;5038789;28;20426;-60
2022/12/21 12:16:26;;;;;;;9.90;7.27;;;6.10;99.90;;;;;;5036445;28;20479;-61
2022/12/21 12:19:30;;;;;;;13.90;7.80;;;6.20;99.90;;;;;;5032712;28;20945;-60
2022/12/21 12:21:59;;;;;;;10.87;7.80;;;6.30;99.90;;;;;;5002956;28;21009;-61
2022/12/21 12:24:47;;;;;;;12.40;8.53;;;6.40;99.90;;;;;;5034881;28;21214;-60
2022/12/21 12:27:31;;;;;;;16.40;8.97;;;6.40;99.90;;;;;;5035216;28;20931;-60
2022/12/21 12:30:12;;;;;;;11.80;8.97;;;6.50;99.90;;;;;;5038862;28;20445;-60
2022/12/21 12:32:43;;;;;;;16.20;9.50;;;6.50;99.90;;;;;;5034955;28;20458;-59
2022/12/21 12:35:30;;;;;;;22.77;8.80;;;6.60;99.90;;;;;;5029964;28;21079;-61
2022/12/21 12:38:23;;;;;;;12.73;8.63;;;6.60;99.90;;;;;;5033646;28;20532;-61
2022/12/21 12:41:35;;;;;;;12.37;8.37;;;6.60;99.90;;;;;;5039439;28;20477;-59
2022/12/21 12:44:30;;;;;;;13.63;7.70;;;6.70;99.90;;;;;;5034466;28;20844;-61
2022/12/21 12:47:24;;;;;;;10.60;8.23;;;6.70;99.90;;;;;;5033485;28;21098;-61
2022/12/21 12:50:11;;;;;;;11.13;7.67;;;6.70;99.90;;;;;;5035269;28;21003;-60
2022/12/21 12:52:59;;;;;;;11.30;7.17;;;6.70;99.90;;;;;;5031923;28;20438;-62
2022/12/21 12:55:49;;;;;;;15.00;8.73;;;6.70;99.90;;;;;;5037370;28;20488;-61
2022/12/21 12:58:22;;;;;;;16.60;8.60;;;6.70;99.90;;;;;;5036538;28;20472;-61
2022/12/21 13:01:14;;;;;;;18.23;7.70;;;6.70;99.90;;;;;;5035934;28;20573;-60
2022/12/21 13:04:04;;;;;;;10.77;6.97;;;6.70;99.90;;;;;;5045350;28;20425;-61
2022/12/21 13:06:45;;;;;;;8.50;5.97;;;6.80;99.90;;;;;;5043088;28;21187;-61
2022/12/21 13:09:36;;;;;;;10.50;7.10;;;6.80;99.90;;;;;;5037221;28;20437;-61
2022/12/21 13:12:17;;;;;;;8.97;7.13;;;6.90;99.90;;;;;;5038487;28;20441;-61
2022/12/21 13:14:54;;;;;;;10.17;7.87;;;6.90;99.90;;;;;;5042410;28;20460;-61